Time;durP1;ratioP1;P1;durP2;ratioP2;P2;SDS_P1;SDS_P2;PMS_P1;PMS_P2;Temp;Humidity;BMP_temperature;BMP_pressure;BME280_temperature;BME280_humidity;BME280_pressure;Samples;Min_cycle;Max_cycle;Signal;HPM_P1;HPM_P2
2021/05/08 00:01:37;;;;;;;24.55;22.67;;;4.80;83.50;;;;;;5035201;28;20336;-74
2021/05/08 00:04:04;;;;;;;24.85;23.23;;;4.80;83.30;;;;;;5034023;28;20197;-74
2021/05/08 00:06:33;;;;;;;24.50;23.00;;;4.80;83.20;;;;;;5043663;28;20291;-75
2021/05/08 00:08:59;;;;;;;24.60;23.10;;;4.80;83.40;;;;;;5029016;28;20198;-74
2021/05/08 00:11:27;;;;;;;25.33;23.75;;;4.80;83.30;;;;;;5038018;28;20224;-75
2021/05/08 00:13:53;;;;;;;24.77;23.15;;;4.70;83.40;;;;;;5043681;28;20561;-74
2021/05/08 00:16:20;;;;;;;24.38;22.98;;;4.70;83.80;;;;;;5036439;28;20279;-74
2021/05/08 00:18:46;;;;;;;25.13;23.52;;;4.70;83.50;;;;;;5030133;28;20194;-74
2021/05/08 00:21:12;;;;;;;24.98;23.17;;;4.70;84.20;;;;;;5028359;28;20267;-74
2021/05/08 00:23:39;;;;;;;26.38;24.20;;;4.80;84.00;;;;;;5028784;28;20572;-74
2021/05/08 00:26:05;;;;;;;25.10;23.58;;;4.80;83.70;;;;;;5034653;28;20226;-76
2021/05/08 00:28:33;;;;;;;23.42;22.02;;;4.80;83.40;;;;;;5036863;28;20348;-75
2021/05/08 00:30:59;;;;;;;25.17;23.58;;;4.80;83.20;;;;;;5028656;28;20693;-75
2021/05/08 00:33:26;;;;;;;24.40;22.90;;;4.80;83.20;;;;;;5028468;28;20280;-75
2021/05/08 00:35:52;;;;;;;25.50;23.95;;;4.80;83.10;;;;;;5039301;28;20606;-75
2021/05/08 00:38:18;;;;;;;25.77;24.27;;;4.80;82.90;;;;;;5028621;28;20675;-76
2021/05/08 00:40:45;;;;;;;23.67;22.33;;;4.80;82.90;;;;;;5030538;28;20548;-75
2021/05/08 00:43:11;;;;;;;24.63;23.23;;;4.80;82.80;;;;;;5046189;28;20204;-75
2021/05/08 00:45:38;;;;;;;25.20;23.65;;;4.80;82.80;;;;;;5028165;28;20527;-75
2021/05/08 00:48:09;;;;;;;25.17;23.65;;;4.70;83.20;;;;;;5028039;28;20591;-78
2021/05/08 00:50:36;;;;;;;26.20;24.45;;;4.70;83.40;;;;;;5036764;28;20226;-77
2021/05/08 00:53:03;;;;;;;24.85;23.25;;;4.60;83.60;;;;;;5047694;28;20686;-75
2021/05/08 00:55:29;;;;;;;25.35;23.73;;;4.60;83.80;;;;;;5043797;28;20185;-75
2021/05/08 00:57:56;;;;;;;25.80;24.10;;;4.60;83.90;;;;;;5034057;28;20693;-74
2021/05/08 01:00:23;;;;;;;25.10;23.50;;;4.60;83.80;;;;;;5029773;28;20287;-75
2021/05/08 01:02:50;;;;;;;24.30;22.85;;;4.60;83.80;;;;;;5047054;28;20239;-75
2021/05/08 01:05:17;;;;;;;26.30;24.70;;;4.50;84.00;;;;;;5040738;28;20242;-76
2021/05/08 01:07:44;;;;;;;25.33;23.23;;;4.60;83.90;;;;;;5039317;28;20992;-75
2021/05/08 01:10:13;;;;;;;25.17;23.58;;;4.60;83.90;;;;;;5045648;28;20675;-77
2021/05/08 01:12:40;;;;;;;24.98;23.38;;;4.60;84.00;;;;;;5050488;28;20270;-75
2021/05/08 01:15:09;;;;;;;24.98;23.58;;;4.60;84.10;;;;;;5051085;28;20200;-74
2021/05/08 01:17:38;;;;;;;25.58;24.05;;;4.60;83.90;;;;;;5035844;28;20275;-75
2021/05/08 01:20:06;;;;;;;25.88;24.38;;;4.60;84.00;;;;;;5050605;28;20201;-73
2021/05/08 01:22:34;;;;;;;25.65;23.90;;;4.60;84.00;;;;;;5031884;28;20257;-73
2021/05/08 01:25:01;;;;;;;26.17;24.40;;;4.50;84.00;;;;;;5031345;28;20215;-74
2021/05/08 01:27:27;;;;;;;25.80;24.20;;;4.60;83.90;;;;;;5043393;28;20594;-74
2021/05/08 01:29:54;;;;;;;30.35;24.05;;;4.60;83.90;;;;;;5031376;28;20773;-73
2021/05/08 01:32:20;;;;;;;26.20;24.60;;;4.60;83.80;;;;;;5031321;28;20305;-74
2021/05/08 01:34:47;;;;;;;27.17;25.17;;;4.70;83.70;;;;;;5031332;28;20251;-73
2021/05/08 01:37:14;;;;;;;28.40;26.05;;;4.60;83.60;;;;;;5031818;28;20367;-74
2021/05/08 01:39:41;;;;;;;26.92;24.88;;;4.60;83.90;;;;;;5031524;28;20208;-73
2021/05/08 01:42:07;;;;;;;26.00;24.10;;;4.60;84.20;;;;;;5038957;28;20229;-74
2021/05/08 01:44:34;;;;;;;26.40;24.58;;;4.60;84.00;;;;;;5032676;28;20193;-74
2021/05/08 01:47:00;;;;;;;26.38;24.67;;;4.70;83.50;;;;;;5031821;28;20315;-73
2021/05/08 01:49:26;;;;;;;27.23;25.00;;;4.60;83.60;;;;;;5045790;28;20646;-74
2021/05/08 01:51:53;;;;;;;28.52;26.17;;;4.60;83.80;;;;;;5033866;28;20221;-73
2021/05/08 01:54:20;;;;;;;26.15;24.48;;;4.60;83.70;;;;;;5046854;28;20275;-76
2021/05/08 01:56:47;;;;;;;24.88;23.30;;;4.50;83.80;;;;;;5031419;28;20577;-76
2021/05/08 01:59:14;;;;;;;26.08;23.88;;;4.50;83.90;;;;;;5030259;28;20586;-80
2021/05/08 02:01:41;;;;;;;26.13;24.48;;;4.50;83.90;;;;;;5034950;28;20216;-75
2021/05/08 02:04:09;;;;;;;25.88;24.17;;;4.50;83.90;;;;;;5048933;28;20295;-75
2021/05/08 02:06:36;;;;;;;26.38;24.67;;;4.50;83.80;;;;;;5030267;28;20218;-75
2021/05/08 02:09:06;;;;;;;25.95;24.20;;;4.60;83.50;;;;;;5033035;28;20287;-76
2021/05/08 02:11:32;;;;;;;25.73;24.05;;;4.60;83.30;;;;;;5039576;28;20224;-75
2021/05/08 02:13:59;;;;;;;26.50;24.80;;;4.70;82.80;;;;;;5049930;28;20200;-74
2021/05/08 02:16:26;;;;;;;26.25;24.58;;;4.60;83.20;;;;;;5030961;28;20292;-74
2021/05/08 02:18:52;;;;;;;26.67;24.85;;;4.40;83.50;;;;;;5032204;28;20193;-74
2021/05/08 02:21:18;;;;;;;26.40;24.63;;;4.40;83.90;;;;;;5030631;28;20287;-74
2021/05/08 02:23:45;;;;;;;26.60;24.95;;;4.40;83.80;;;;;;5030180;28;20197;-74
2021/05/08 02:26:11;;;;;;;25.95;24.35;;;4.40;83.70;;;;;;5043429;28;20201;-74
2021/05/08 02:28:38;;;;;;;26.20;24.33;;;4.30;83.90;;;;;;5031304;28;20572;-74
2021/05/08 02:31:05;;;;;;;25.38;23.77;;;4.30;84.70;;;;;;5028745;28;20266;-74
2021/05/08 02:33:31;;;;;;;26.92;24.95;;;4.30;85.00;;;;;;5030841;28;20205;-74
2021/05/08 02:35:58;;;;;;;25.38;23.92;;;4.40;86.80;;;;;;5040998;28;20237;-75
2021/05/08 02:38:24;;;;;;;25.00;23.40;;;4.40;85.10;;;;;;5031752;28;20285;-74
2021/05/08 02:40:51;;;;;;;27.50;25.80;;;4.30;85.40;;;;;;5031903;28;20213;-74
2021/05/08 02:43:17;;;;;;;26.40;24.35;;;4.30;84.80;;;;;;5031084;28;20742;-74
2021/05/08 02:45:44;;;;;;;27.27;25.52;;;4.40;84.20;;;;;;5039431;28;20545;-76
2021/05/08 02:48:11;;;;;;;25.65;23.85;;;4.40;84.30;;;;;;5033387;28;20626;-74
2021/05/08 02:50:38;;;;;;;26.88;24.95;;;4.40;84.30;;;;;;5031793;28;20315;-73
2021/05/08 02:53:05;;;;;;;26.60;25.00;;;4.40;84.30;;;;;;5036028;28;20195;-74
2021/05/08 02:55:31;;;;;;;25.42;23.92;;;4.40;85.00;;;;;;5026573;28;20210;-73
2021/05/08 02:58:01;;;;;;;27.40;25.35;;;4.30;84.70;;;;;;5036062;28;20193;-74
2021/05/08 03:00:28;;;;;;;27.75;25.85;;;4.20;84.80;;;;;;5048201;28;20204;-74
2021/05/08 03:02:54;;;;;;;25.58;23.88;;;4.20;84.80;;;;;;5049492;28;20284;-75
2021/05/08 03:05:22;;;;;;;27.73;25.70;;;4.20;84.80;;;;;;5042305;28;20200;-75
2021/05/08 03:07:48;;;;;;;26.92;25.20;;;4.20;87.00;;;;;;5042907;28;20213;-74
2021/05/08 03:10:15;;;;;;;27.33;25.35;;;4.30;85.80;;;;;;5044396;28;20279;-73
2021/05/08 03:12:41;;;;;;;26.67;24.85;;;4.20;86.50;;;;;;5046361;28;20200;-75
2021/05/08 03:15:08;;;;;;;26.98;24.92;;;4.20;85.30;;;;;;5041178;28;20211;-75
2021/05/08 03:17:35;;;;;;;27.65;25.95;;;4.20;84.80;;;;;;5028792;28;20430;-75
2021/05/08 03:20:02;;;;;;;26.90;25.10;;;4.30;84.60;;;;;;5033849;28;20490;-77
2021/05/08 03:22:29;;;;;;;26.10;24.50;;;4.30;84.50;;;;;;5026226;28;20221;-76
2021/05/08 03:24:55;;;;;;;25.63;24.02;;;4.30;84.40;;;;;;5037191;28;20201;-75
2021/05/08 03:27:22;;;;;;;26.50;24.67;;;4.20;86.00;;;;;;5029365;28;20585;-75
2021/05/08 03:29:48;;;;;;;27.35;25.23;;;4.20;87.30;;;;;;5041188;28;20293;-77
2021/05/08 03:32:15;;;;;;;27.00;25.10;;;4.10;85.90;;;;;;5040282;28;20295;-76
2021/05/08 03:34:41;;;;;;;27.42;25.58;;;4.10;85.50;;;;;;5043824;28;20608;-76
2021/05/08 03:37:07;;;;;;;26.67;25.02;;;4.10;85.00;;;;;;5029162;28;20202;-76
2021/05/08 03:39:35;;;;;;;25.88;24.17;;;4.00;85.40;;;;;;5030969;28;20201;-76
2021/05/08 03:42:01;;;;;;;32.83;25.08;;;4.00;86.90;;;;;;5029648;28;20282;-75
2021/05/08 03:44:27;;;;;;;27.42;25.25;;;4.00;86.40;;;;;;5029867;28;20333;-76
2021/05/08 03:46:54;;;;;;;26.65;24.73;;;4.10;85.50;;;;;;5025638;28;20276;-75
2021/05/08 03:49:20;;;;;;;27.30;25.20;;;4.10;85.10;;;;;;5035399;28;20308;-76
2021/05/08 03:51:47;;;;;;;29.05;27.25;;;4.10;84.90;;;;;;5028420;28;20300;-79
2021/05/08 03:54:13;;;;;;;26.48;24.67;;;4.00;85.10;;;;;;5029415;28;20194;-75
2021/05/08 03:56:41;;;;;;;29.95;27.00;;;4.00;85.00;;;;;;5028860;28;20316;-75
2021/05/08 03:59:07;;;;;;;26.27;24.38;;;4.10;85.40;;;;;;5030185;28;20200;-72
2021/05/08 04:01:34;;;;;;;27.02;25.02;;;4.00;88.20;;;;;;5028860;28;20225;-72
2021/05/08 04:04:00;;;;;;;26.70;24.90;;;4.00;89.80;;;;;;5033754;28;20292;-73
2021/05/08 04:06:27;;;;;;;25.67;23.90;;;4.10;88.40;;;;;;5027783;28;20279;-72
2021/05/08 04:08:53;;;;;;;26.45;24.40;;;4.00;86.80;;;;;;5029795;28;20288;-72
2021/05/08 04:11:20;;;;;;;25.80;24.05;;;4.00;86.30;;;;;;5028799;28;20217;-73
2021/05/08 04:13:47;;;;;;;28.02;25.98;;;4.20;85.20;;;;;;5032216;28;20199;-73
2021/05/08 04:16:13;;;;;;;27.17;24.75;;;4.20;84.70;;;;;;5035566;28;20573;-72
2021/05/08 04:18:40;;;;;;;26.88;25.08;;;4.40;84.10;;;;;;5029274;28;20197;-73
2021/05/08 04:21:06;;;;;;;26.63;24.73;;;4.50;83.80;;;;;;5028744;28;20638;-72
2021/05/08 04:23:33;;;;;;;26.50;24.80;;;4.40;85.40;;;;;;5033619;28;20207;-72
2021/05/08 04:25:59;;;;;;;26.30;24.58;;;4.50;83.70;;;;;;5028240;28;20197;-73
2021/05/08 04:28:25;;;;;;;26.65;24.95;;;4.40;83.40;;;;;;5030553;28;20339;-73
2021/05/08 04:30:52;;;;;;;28.25;26.13;;;4.60;83.00;;;;;;5045833;28;20312;-73
2021/05/08 04:33:19;;;;;;;31.88;28.00;;;4.60;82.70;;;;;;5028934;28;20288;-72
2021/05/08 04:35:45;;;;;;;557.78;82.97;;;4.50;85.50;;;;;;5027117;28;20205;-73
2021/05/08 04:38:12;;;;;;;24.58;22.88;;;4.60;90.70;;;;;;5030293;28;20623;-72
2021/05/08 04:40:39;;;;;;;24.60;23.10;;;4.60;88.70;;;;;;5028441;28;20760;-73
2021/05/08 04:43:05;;;;;;;24.77;23.27;;;4.60;88.40;;;;;;5038019;28;20333;-73
2021/05/08 04:45:31;;;;;;;26.17;24.48;;;4.80;86.60;;;;;;5030584;28;20205;-72
2021/05/08 04:47:59;;;;;;;26.65;24.90;;;4.90;84.60;;;;;;5029056;28;20217;-73
2021/05/08 04:50:27;;;;;;;27.15;25.45;;;5.00;82.90;;;;;;5042791;28;20235;-73
2021/05/08 04:52:54;;;;;;;36.67;27.08;;;5.00;82.70;;;;;;5027534;28;20236;-73
2021/05/08 04:55:21;;;;;;;26.10;24.40;;;5.00;83.80;;;;;;5041406;28;20575;-72
2021/05/08 04:57:47;;;;;;;26.55;24.55;;;5.00;83.40;;;;;;5033410;28;20194;-73
2021/05/08 05:00:15;;;;;;;25.17;23.58;;;5.20;82.60;;;;;;5029047;28;20197;-74
2021/05/08 05:02:42;;;;;;;25.98;24.45;;;5.40;81.50;;;;;;5028474;28;20222;-73
2021/05/08 05:05:12;;;;;;;29.35;27.05;;;5.40;80.60;;;;;;5027157;28;20627;-72
2021/05/08 05:07:38;;;;;;;28.00;25.30;;;5.40;80.20;;;;;;5026561;28;20217;-73
2021/05/08 05:10:06;;;;;;;25.95;24.17;;;5.50;79.70;;;;;;5028909;28;20201;-72
2021/05/08 05:12:32;;;;;;;26.02;24.52;;;5.70;80.40;;;;;;5027441;28;20220;-73
2021/05/08 05:14:58;;;;;;;25.83;23.77;;;5.70;80.50;;;;;;5029113;28;20201;-72
2021/05/08 05:17:25;;;;;;;26.27;24.75;;;5.80;80.20;;;;;;5026677;28;20667;-72
2021/05/08 05:19:52;;;;;;;26.33;24.63;;;5.90;80.60;;;;;;5040326;28;20264;-73
2021/05/08 05:22:19;;;;;;;27.92;25.42;;;5.90;79.30;;;;;;5043296;28;20711;-73
2021/05/08 05:24:45;;;;;;;25.63;23.98;;;6.00;78.70;;;;;;5033560;28;20207;-73
2021/05/08 05:27:12;;;;;;;26.77;25.13;;;6.10;78.60;;;;;;5027527;28;20230;-72
2021/05/08 05:29:38;;;;;;;29.42;27.08;;;6.30;77.40;;;;;;5037966;28;20196;-73
2021/05/08 05:32:05;;;;;;;28.83;25.88;;;6.40;77.30;;;;;;5028576;28;20745;-73
2021/05/08 05:34:32;;;;;;;27.33;25.17;;;6.40;77.40;;;;;;5028907;28;20251;-74
2021/05/08 05:36:58;;;;;;;28.40;26.73;;;6.50;77.70;;;;;;5031075;28;20207;-73
2021/05/08 05:39:28;;;;;;;27.80;26.05;;;6.60;76.70;;;;;;5030526;28;20289;-75
2021/05/08 05:41:55;;;;;;;28.70;26.60;;;6.70;76.00;;;;;;5026818;28;20759;-75
2021/05/08 05:44:21;;;;;;;29.02;27.23;;;6.90;75.30;;;;;;5030476;28;20194;-76
2021/05/08 05:46:48;;;;;;;26.15;24.35;;;7.00;75.00;;;;;;5038714;28;20282;-75
2021/05/08 05:49:14;;;;;;;26.67;25.08;;;7.10;73.80;;;;;;5029194;28;20195;-75
2021/05/08 05:51:40;;;;;;;27.55;25.65;;;7.30;72.90;;;;;;5027877;28;20775;-75
2021/05/08 05:54:07;;;;;;;28.17;26.15;;;7.40;72.60;;;;;;5030345;28;20288;-76
2021/05/08 05:56:34;;;;;;;27.15;25.45;;;7.50;72.20;;;;;;5041077;28;20198;-75
2021/05/08 05:59:01;;;;;;;27.73;25.98;;;7.50;71.60;;;;;;5038344;28;20270;-76
2021/05/08 06:01:27;;;;;;;27.40;25.65;;;7.50;70.40;;;;;;5029588;28;20299;-73
2021/05/08 06:03:54;;;;;;;28.52;26.70;;;7.50;70.50;;;;;;5034538;28;20251;-74
2021/05/08 06:06:20;;;;;;;27.30;25.63;;;7.60;70.00;;;;;;5049713;28;20211;-74
2021/05/08 06:08:46;;;;;;;26.15;24.50;;;7.80;69.80;;;;;;5035742;28;20757;-73
2021/05/08 06:11:13;;;;;;;27.30;25.63;;;7.90;69.10;;;;;;5050314;28;20309;-74
2021/05/08 06:13:40;;;;;;;29.65;27.70;;;8.00;68.30;;;;;;5036592;28;20206;-74
2021/05/08 06:16:07;;;;;;;26.85;25.25;;;8.10;67.80;;;;;;5030905;28;20205;-74
2021/05/08 06:18:34;;;;;;;28.95;27.25;;;8.30;67.30;;;;;;5033101;28;20222;-77
2021/05/08 06:21:01;;;;;;;27.08;25.48;;;8.40;66.50;;;;;;5034630;28;20337;-75
2021/05/08 06:23:27;;;;;;;26.52;24.92;;;8.40;66.60;;;;;;5031990;28;20205;-74
2021/05/08 06:25:54;;;;;;;27.10;25.50;;;8.60;66.10;;;;;;5033991;28;20695;-72
2021/05/08 06:28:20;;;;;;;26.83;25.33;;;8.70;65.90;;;;;;5033761;28;20230;-74
2021/05/08 06:30:47;;;;;;;29.25;27.55;;;8.80;65.50;;;;;;5037476;28;20232;-75
2021/05/08 06:33:14;;;;;;;25.80;24.40;;;8.90;65.10;;;;;;5031410;28;20282;-77
2021/05/08 06:35:40;;;;;;;26.38;24.77;;;9.00;64.70;;;;;;5039500;28;20205;-76
2021/05/08 06:38:07;;;;;;;25.80;24.40;;;9.10;64.30;;;;;;5050873;28;20242;-74
2021/05/08 06:40:33;;;;;;;26.95;25.45;;;9.20;64.30;;;;;;5033898;28;20225;-72
2021/05/08 06:43:00;;;;;;;28.73;26.35;;;9.30;63.70;;;;;;5036176;28;20219;-73
2021/05/08 06:45:29;;;;;;;28.75;26.73;;;9.50;63.30;;;;;;5034150;28;20273;-73
2021/05/08 06:48:00;;;;;;;26.80;24.85;;;9.70;63.00;;;;;;5036418;28;20221;-73
2021/05/08 06:50:27;;;;;;;26.88;24.83;;;9.80;63.10;;;;;;5027118;28;20201;-73
2021/05/08 06:52:53;;;;;;;26.52;24.98;;;9.90;63.00;;;;;;5031988;28;20205;-73
2021/05/08 06:55:20;;;;;;;26.65;24.95;;;10.10;61.30;;;;;;5033900;28;20217;-74
2021/05/08 06:57:48;;;;;;;26.90;25.40;;;10.30;61.10;;;;;;5029471;28;20281;-75
2021/05/08 07:00:15;;;;;;;25.80;24.30;;;10.40;60.90;;;;;;5045631;28;20288;-75
2021/05/08 07:02:42;;;;;;;27.40;25.70;;;10.60;60.40;;;;;;5050609;28;20230;-75
2021/05/08 07:05:10;;;;;;;27.77;25.42;;;10.80;60.00;;;;;;5042648;28;20197;-74
2021/05/08 07:07:37;;;;;;;26.98;25.25;;;10.90;60.00;;;;;;5032839;28;20335;-75
2021/05/08 07:10:04;;;;;;;25.65;24.15;;;11.10;59.50;;;;;;5030365;28;20655;-75
2021/05/08 07:12:30;;;;;;;27.70;25.83;;;11.30;59.30;;;;;;5036914;28;20216;-75
2021/05/08 07:14:57;;;;;;;27.13;25.57;;;11.50;58.90;;;;;;5043087;28;20500;-75
2021/05/08 07:17:23;;;;;;;27.30;25.73;;;11.60;58.80;;;;;;5028656;28;20496;-75
2021/05/08 07:19:50;;;;;;;29.00;26.90;;;11.80;58.50;;;;;;5031016;28;21045;-75
2021/05/08 07:22:17;;;;;;;25.90;24.40;;;12.00;57.50;;;;;;5032294;28;20510;-75
2021/05/08 07:24:43;;;;;;;26.17;24.67;;;12.20;56.90;;;;;;5034459;28;20503;-75
2021/05/08 07:27:10;;;;;;;26.27;24.67;;;12.40;56.30;;;;;;5029808;28;20985;-75
2021/05/08 07:29:36;;;;;;;40.57;27.33;;;12.60;54.60;;;;;;5030199;28;20479;-76
2021/05/08 07:32:02;;;;;;;26.97;25.03;;;12.80;54.60;;;;;;5030108;28;20999;-75
2021/05/08 07:34:29;;;;;;;25.53;24.03;;;13.00;54.80;;;;;;5031197;28;20499;-75
2021/05/08 07:36:55;;;;;;;25.60;24.20;;;13.20;55.10;;;;;;5028670;28;20456;-76
2021/05/08 07:39:23;;;;;;;26.30;24.57;;;13.40;54.60;;;;;;5032062;28;21020;-77
2021/05/08 07:41:50;;;;;;;27.03;25.37;;;13.50;54.50;;;;;;5030061;28;20487;-75
2021/05/08 07:44:16;;;;;;;25.23;23.83;;;13.70;54.20;;;;;;5034472;28;20595;-75
2021/05/08 07:46:43;;;;;;;25.20;23.80;;;13.80;54.20;;;;;;5029985;28;20542;-74
2021/05/08 07:49:09;;;;;;;26.80;25.13;;;13.90;54.30;;;;;;5031772;28;20877;-73
2021/05/08 07:51:36;;;;;;;27.63;25.63;;;14.00;53.40;;;;;;5031388;28;20880;-75
2021/05/08 07:54:02;;;;;;;28.40;25.20;;;14.00;53.20;;;;;;5031424;28;20487;-73
2021/05/08 07:56:32;;;;;;;26.37;24.87;;;14.10;53.80;;;;;;5034583;28;20545;-73
2021/05/08 07:58:58;;;;;;;28.90;27.00;;;14.20;56.90;;;;;;5033534;28;20494;-73
2021/05/08 08:01:25;;;;;;;28.10;26.40;;;14.20;56.90;;;;;;5034504;28;20968;-77
2021/05/08 08:03:51;;;;;;;28.10;26.40;;;14.20;55.50;;;;;;5036209;28;20488;-76
2021/05/08 08:06:18;;;;;;;27.00;25.40;;;14.40;54.40;;;;;;5035712;28;20558;-76
2021/05/08 08:08:44;;;;;;;26.37;24.57;;;14.60;53.70;;;;;;5031899;28;20510;-74
2021/05/08 08:11:11;;;;;;;25.30;23.87;;;14.50;53.80;;;;;;5036134;28;20845;-72
2021/05/08 08:13:38;;;;;;;25.63;24.10;;;14.60;54.10;;;;;;5037299;28;20470;-71
2021/05/08 08:16:07;;;;;;;26.50;24.93;;;14.60;55.00;;;;;;5026948;28;20467;-74
2021/05/08 08:18:34;;;;;;;26.83;25.23;;;14.70;53.90;;;;;;5028814;28;20451;-74
2021/05/08 08:21:00;;;;;;;26.53;25.03;;;14.60;53.50;;;;;;5026992;28;20562;-74
2021/05/08 08:23:27;;;;;;;25.33;23.80;;;14.70;53.40;;;;;;5032053;28;20456;-75
2021/05/08 08:25:53;;;;;;;24.63;23.33;;;14.70;53.40;;;;;;5045883;28;21020;-74
2021/05/08 08:28:21;;;;;;;25.07;23.60;;;14.60;53.40;;;;;;5039886;28;20490;-74
2021/05/08 08:30:48;;;;;;;28.57;25.90;;;14.70;53.40;;;;;;5028840;28;20484;-75
2021/05/08 08:33:18;;;;;;;25.10;23.40;;;14.80;53.00;;;;;;5036661;28;20543;-77
2021/05/08 08:35:45;;;;;;;25.90;24.40;;;14.90;51.80;;;;;;5028256;28;20491;-74
2021/05/08 08:38:11;;;;;;;26.53;25.10;;;15.10;51.40;;;;;;5028360;28;20452;-75
2021/05/08 08:40:38;;;;;;;25.20;23.60;;;15.30;50.70;;;;;;5033156;28;20522;-75
2021/05/08 08:43:05;;;;;;;25.17;23.57;;;15.40;50.40;;;;;;5046114;28;20461;-74
2021/05/08 08:45:31;;;;;;;25.10;23.67;;;15.60;50.10;;;;;;5043655;28;21060;-75
2021/05/08 08:47:59;;;;;;;25.70;23.70;;;15.80;49.70;;;;;;5035088;28;20626;-75
2021/05/08 08:50:27;;;;;;;25.57;23.43;;;16.00;49.00;;;;;;5027379;28;21105;-75
2021/05/08 08:52:54;;;;;;;25.43;23.93;;;16.30;48.40;;;;;;5036100;28;20544;-75
2021/05/08 08:55:20;;;;;;;24.23;22.87;;;16.60;48.10;;;;;;5031151;28;20819;-76
2021/05/08 08:57:48;;;;;;;23.73;22.43;;;16.80;47.10;;;;;;5028688;28;20482;-75
2021/05/08 09:00:16;;;;;;;24.40;22.90;;;17.10;47.10;;;;;;5033366;28;20460;-74
2021/05/08 09:02:44;;;;;;;24.60;23.00;;;17.30;46.80;;;;;;5027900;28;20514;-74
2021/05/08 09:05:14;;;;;;;23.70;22.40;;;17.40;47.90;;;;;;5036304;28;20491;-76
2021/05/08 09:07:44;;;;;;;23.60;22.40;;;17.30;46.50;;;;;;5044455;28;20475;-74
2021/05/08 09:10:24;;;;;;;24.20;22.90;;;17.60;46.10;;;;;;5029666;28;20530;-75
2021/05/08 09:12:52;;;;;;;25.30;23.90;;;17.90;44.00;;;;;;5027834;28;20474;-74
2021/05/08 09:15:35;;;;;;;24.20;22.90;;;18.10;43.50;;;;;;5032888;28;20482;-74
2021/05/08 09:18:02;;;;;;;24.73;23.43;;;18.40;43.80;;;;;;5033348;28;20981;-73
2021/05/08 09:20:46;;;;;;;25.77;24.33;;;18.60;43.20;;;;;;5027954;28;21002;-74
2021/05/08 09:23:22;;;;;;;25.87;24.37;;;18.90;44.50;;;;;;5028451;28;20492;-74
2021/05/08 09:25:57;;;;;;;25.37;23.60;;;19.00;42.20;;;;;;5037299;28;20542;-74
2021/05/08 09:28:23;;;;;;;24.13;22.83;;;19.30;41.30;;;;;;5034239;28;20909;-73
2021/05/08 09:30:50;;;;;;;27.13;25.63;;;19.30;42.00;;;;;;5034442;28;20848;-73
2021/05/08 09:33:21;;;;;;;26.33;24.40;;;19.40;40.50;;;;;;5049878;28;20466;-73
2021/05/08 09:35:59;;;;;;;25.27;23.40;;;19.40;42.50;;;;;;5031898;28;20451;-73
2021/05/08 09:38:31;;;;;;;23.90;22.70;;;19.60;41.10;;;;;;5036076;28;20462;-73
2021/05/08 09:40:59;;;;;;;30.40;27.90;;;19.90;39.70;;;;;;5034789;28;21199;-73
2021/05/08 09:43:26;;;;;;;26.20;24.30;;;20.00;39.20;;;;;;5036310;28;20532;-74
2021/05/08 09:45:53;;;;;;;25.30;23.73;;;19.90;39.30;;;;;;5042602;28;20451;-74
2021/05/08 09:48:22;;;;;;;24.73;23.43;;;19.90;40.60;;;;;;5046007;28;20479;-74
2021/05/08 09:50:49;;;;;;;24.37;22.87;;;20.00;39.10;;;;;;5030198;28;20506;-73
2021/05/08 09:53:27;;;;;;;23.97;22.77;;;20.20;38.50;;;;;;5033483;28;20456;-76
2021/05/08 09:55:54;;;;;;;24.30;22.90;;;20.30;38.90;;;;;;5032532;28;20463;-76
2021/05/08 09:58:22;;;;;;;23.50;22.30;;;20.10;38.60;;;;;;5049537;28;20533;-74
2021/05/08 10:00:48;;;;;;;23.47;22.27;;;20.00;38.70;;;;;;5032732;28;20475;-73
2021/05/08 10:03:16;;;;;;;24.47;23.00;;;20.00;38.70;;;;;;5030833;28;20466;-75
2021/05/08 10:05:49;;;;;;;24.43;23.00;;;20.00;38.40;;;;;;5041896;28;20974;-74
2021/05/08 10:08:16;;;;;;;23.70;22.50;;;20.00;38.40;;;;;;5046899;28;20486;-75
2021/05/08 10:10:44;;;;;;;24.27;22.97;;;20.10;40.80;;;;;;5043509;28;20463;-74
2021/05/08 10:13:13;;;;;;;24.90;23.53;;;20.00;38.70;;;;;;5035774;28;20454;-75
2021/05/08 10:15:40;;;;;;;23.80;22.40;;;19.80;38.10;;;;;;5031625;28;20463;-74
2021/05/08 10:18:12;;;;;;;24.57;23.07;;;19.50;38.00;;;;;;5030238;28;20495;-74
2021/05/08 10:20:40;;;;;;;24.53;22.90;;;19.30;38.50;;;;;;5030443;28;21053;-74
2021/05/08 10:23:08;;;;;;;24.80;23.40;;;19.30;39.40;;;;;;5038070;28;20454;-74
2021/05/08 10:25:36;;;;;;;24.00;22.63;;;19.10;39.80;;;;;;5031921;28;20890;-73
2021/05/08 10:28:03;;;;;;;24.53;23.23;;;18.90;40.00;;;;;;5040875;28;20514;-74
2021/05/08 10:30:32;;;;;;;24.07;22.70;;;19.00;39.50;;;;;;5030973;28;20471;-74
2021/05/08 10:32:59;;;;;;;24.87;23.57;;;19.00;39.90;;;;;;5031115;28;20518;-74
2021/05/08 10:35:39;;;;;;;24.97;23.17;;;18.70;39.50;;;;;;5042001;28;20456;-74
2021/05/08 10:38:16;;;;;;;26.23;23.73;;;18.50;40.60;;;;;;5031296;28;20956;-74
2021/05/08 10:41:05;;;;;;;25.40;23.60;;;18.70;40.20;;;;;;5031501;28;20562;-73
2021/05/08 10:43:46;;;;;;;24.87;23.17;;;19.10;40.20;;;;;;5035495;28;20954;-72
2021/05/08 10:46:14;;;;;;;23.63;22.33;;;19.40;39.50;;;;;;5034037;28;20463;-74
2021/05/08 10:49:06;;;;;;;24.57;23.17;;;19.50;38.60;;;;;;5034177;28;20479;-74
2021/05/08 10:51:55;;;;;;;25.40;23.70;;;19.70;38.00;;;;;;5039633;28;20558;-75
2021/05/08 10:54:55;;;;;;;26.20;24.70;;;20.00;37.40;;;;;;5041300;28;20459;-74
2021/05/08 10:57:23;;;;;;;23.40;22.10;;;20.40;37.40;;;;;;5030655;28;20456;-74
2021/05/08 11:00:26;;;;;;;26.10;24.80;;;20.50;37.30;;;;;;5036278;28;20961;-73
2021/05/08 11:03:04;;;;;;;24.70;23.40;;;20.90;37.60;;;;;;5030023;28;20996;-75
2021/05/08 11:05:33;;;;;;;24.33;23.13;;;21.30;36.80;;;;;;5030141;28;20460;-74
2021/05/08 11:08:00;;;;;;;23.40;22.30;;;21.40;36.00;;;;;;5031863;28;20498;-74
2021/05/08 11:10:40;;;;;;;23.83;22.63;;;21.20;35.40;;;;;;5034300;28;20469;-74
2021/05/08 11:13:08;;;;;;;24.93;23.43;;;21.40;35.60;;;;;;5030205;28;20467;-74
2021/05/08 11:16:14;;;;;;;25.83;24.37;;;21.60;35.70;;;;;;5033519;28;20464;-74
2021/05/08 11:18:44;;;;;;;25.10;23.70;;;21.70;34.50;;;;;;5027153;28;20824;-74
2021/05/08 11:21:49;;;;;;;24.30;23.00;;;21.80;33.70;;;;;;5035367;28;20479;-74
2021/05/08 11:24:34;;;;;;;23.77;22.47;;;22.00;33.30;;;;;;5038037;28;20512;-73
2021/05/08 11:27:01;;;;;;;24.00;22.73;;;22.00;32.70;;;;;;5028930;28;20447;-73
2021/05/08 11:29:29;;;;;;;24.43;23.03;;;22.00;33.20;;;;;;5030524;28;20538;-73
2021/05/08 11:31:57;;;;;;;26.03;23.37;;;22.00;32.60;;;;;;5030890;28;20479;-73
2021/05/08 11:34:26;;;;;;;24.83;23.33;;;22.00;33.30;;;;;;5045245;28;21200;-72
2021/05/08 11:36:55;;;;;;;23.60;22.33;;;22.20;33.40;;;;;;5041345;28;20467;-73
2021/05/08 11:39:23;;;;;;;23.83;22.33;;;22.20;33.10;;;;;;5030356;28;21048;-73
2021/05/08 11:41:52;;;;;;;24.40;22.50;;;22.20;33.50;;;;;;5030009;28;21057;-72
2021/05/08 11:44:27;;;;;;;24.93;23.10;;;22.30;33.50;;;;;;5031871;28;20460;-73
2021/05/08 11:46:59;;;;;;;23.67;22.47;;;22.30;33.30;;;;;;5028453;28;20464;-73
2021/05/08 11:49:31;;;;;;;26.27;24.53;;;22.30;34.10;;;;;;5030465;28;20542;-73
2021/05/08 11:51:59;;;;;;;23.33;22.13;;;22.30;33.70;;;;;;5032857;28;20484;-73
2021/05/08 11:54:26;;;;;;;23.77;22.30;;;22.30;34.80;;;;;;5037611;28;20461;-73
2021/05/08 11:56:53;;;;;;;23.53;22.33;;;22.50;33.60;;;;;;5040249;28;20490;-73
2021/05/08 11:59:34;;;;;;;23.50;22.30;;;22.50;33.60;;;;;;5038837;28;20544;-73
2021/05/08 12:02:16;;;;;;;24.60;23.30;;;22.40;33.20;;;;;;5045909;28;21206;-73
2021/05/08 12:04:49;;;;;;;28.17;26.10;;;22.20;33.80;;;;;;5035791;28;21016;-73
2021/05/08 12:07:20;;;;;;;23.30;22.00;;;22.30;33.70;;;;;;5029663;28;20451;-73
2021/05/08 12:09:46;;;;;;;25.57;24.13;;;22.30;34.00;;;;;;5040801;28;20455;-72
2021/05/08 12:12:13;;;;;;;23.03;21.93;;;22.40;34.90;;;;;;5047296;28;20913;-73
2021/05/08 12:14:40;;;;;;;23.47;22.27;;;22.30;33.80;;;;;;5036072;28;20968;-72
2021/05/08 12:17:08;;;;;;;23.90;22.50;;;22.30;34.90;;;;;;5029593;28;21031;-73
2021/05/08 12:19:37;;;;;;;26.37;24.87;;;22.40;34.80;;;;;;5030193;28;20992;-73
2021/05/08 12:22:06;;;;;;;23.53;22.23;;;22.50;34.80;;;;;;5043930;28;20474;-73
2021/05/08 12:24:33;;;;;;;23.33;22.10;;;22.50;34.20;;;;;;5036738;28;20559;-74
2021/05/08 12:27:00;;;;;;;25.40;23.80;;;22.70;34.00;;;;;;5039277;28;20574;-73
2021/05/08 12:29:26;;;;;;;24.33;23.03;;;22.70;33.70;;;;;;5032414;28;20460;-73
2021/05/08 12:31:53;;;;;;;25.43;24.13;;;22.50;33.70;;;;;;5032242;28;20565;-73
2021/05/08 12:34:21;;;;;;;24.00;22.50;;;22.60;33.80;;;;;;5035147;28;20563;-74
2021/05/08 12:37:02;;;;;;;26.87;24.40;;;22.70;34.20;;;;;;5034302;28;20577;-73
2021/05/08 12:39:29;;;;;;;32.90;26.57;;;23.00;33.60;;;;;;5037457;28;21236;-73